createdAt,value
2022-11-28T00:00:44.209Z,1001.8
2022-11-28T00:02:00.505Z,1001.8
2022-11-28T00:03:16.803Z,1001.8
2022-11-28T00:04:33.098Z,1001.8
2022-11-28T00:05:49.398Z,1001.8
2022-11-28T00:07:05.693Z,1001.8
2022-11-28T00:08:21.984Z,1001.7
2022-11-28T00:09:38.281Z,1001.7
2022-11-28T00:10:54.566Z,1001.7
2022-11-28T00:12:10.875Z,1001.7
2022-11-28T00:13:26.182Z,1001.6
2022-11-28T00:14:42.470Z,1001.6
2022-11-28T00:15:58.767Z,1001.6
2022-11-28T00:17:15.057Z,1001.6
2022-11-28T00:18:31.361Z,1001.6
2022-11-28T00:19:47.650Z,1001.6
2022-11-28T00:21:03.941Z,1001.5
2022-11-28T00:22:20.237Z,1001.5
2022-11-28T00:23:36.544Z,1001.5
2022-11-28T00:24:52.834Z,1001.5
2022-11-28T00:26:09.136Z,1001.4
2022-11-28T00:27:25.421Z,1001.4
2022-11-28T00:28:41.705Z,1001.4
2022-11-28T00:29:57.019Z,1001.4
2022-11-28T00:31:13.319Z,1001.4
2022-11-28T00:32:29.613Z,1001.4
2022-11-28T00:33:45.917Z,1001.4
2022-11-28T00:35:02.210Z,1001.3
2022-11-28T00:36:18.499Z,1001.4
2022-11-28T00:37:34.803Z,1001.4
2022-11-28T00:38:51.082Z,1001.4
2022-11-28T00:40:07.394Z,1001.4
2022-11-28T00:41:23.671Z,1001.3
2022-11-28T00:42:39.978Z,1001.3
2022-11-28T00:43:56.267Z,1001.3
2022-11-28T00:45:12.567Z,1001.3
2022-11-28T00:46:27.867Z,1001.3
2022-11-28T00:47:44.166Z,1001.2
2022-11-28T00:49:00.473Z,1001.3
2022-11-28T00:50:16.755Z,1001.2
2022-11-28T00:51:33.065Z,1001.1
2022-11-28T00:52:49.353Z,1001.2
2022-11-28T00:55:21.934Z,1001.2
2022-11-28T00:56:38.236Z,1001.3
2022-11-28T00:57:54.532Z,1001.2
2022-11-28T00:59:10.831Z,1001.2
2022-11-28T01:00:27.113Z,1001.2
2022-11-28T01:01:43.410Z,1001.2
2022-11-28T01:02:58.721Z,1001.2
2022-11-28T01:04:15.026Z,1001.2
2022-11-28T01:05:31.321Z,1001.1
2022-11-28T01:06:47.617Z,1001.2
2022-11-28T01:08:03.905Z,1001.1
2022-11-28T01:09:20.195Z,1001.1
2022-11-28T01:10:36.498Z,1001.1
2022-11-28T01:11:52.798Z,1001.1
2022-11-28T01:13:09.076Z,1001.1
2022-11-28T01:14:25.387Z,1001.1
2022-11-28T01:15:41.683Z,1001.1
2022-11-28T01:16:57.962Z,1001.1
2022-11-28T01:18:14.258Z,1001
2022-11-28T01:19:29.577Z,1001.1
2022-11-28T01:20:45.865Z,1001.1
2022-11-28T01:22:02.173Z,1001.1
2022-11-28T01:23:18.463Z,1001
2022-11-28T01:24:34.756Z,1001.1
2022-11-28T01:25:51.058Z,1001.1
2022-11-28T01:27:07.341Z,1001.2
2022-11-28T01:28:23.632Z,1001.1
2022-11-28T01:30:56.223Z,1001.1
2022-11-28T01:32:12.513Z,1001.1
2022-11-28T01:33:28.828Z,1001.1
2022-11-28T01:34:45.108Z,1001.1
2022-11-28T01:36:00.418Z,1001
2022-11-28T01:38:33.017Z,1001
2022-11-28T01:39:49.312Z,1001
2022-11-28T01:41:05.599Z,1001
2022-11-28T01:42:21.902Z,1001
2022-11-28T01:43:38.190Z,1001
2022-11-28T01:44:54.478Z,1001
2022-11-28T01:46:10.794Z,1000.9
2022-11-28T01:47:27.086Z,1000.9
2022-11-28T01:48:43.376Z,1000.9
2022-11-28T01:51:15.965Z,1000.8
2022-11-28T01:52:31.281Z,1000.8
2022-11-28T01:53:46.592Z,1000.8
2022-11-28T01:55:02.888Z,1000.7
2022-11-28T01:56:19.192Z,1000.8
2022-11-28T01:57:35.467Z,1000.7
2022-11-28T01:58:51.770Z,1000.7
2022-11-28T02:00:08.060Z,1000.7
2022-11-28T02:01:24.360Z,1000.7
2022-11-28T02:02:40.649Z,1000.7
2022-11-28T02:03:56.955Z,1000.7
2022-11-28T02:05:13.244Z,1000.7
2022-11-28T02:06:28.562Z,1000.7
2022-11-28T02:09:00.172Z,1000.7
2022-11-28T02:10:16.469Z,1000.7
2022-11-28T02:11:32.760Z,1000.6
2022-11-28T02:12:49.050Z,1000.6
2022-11-28T02:14:05.339Z,1000.7
2022-11-28T02:15:21.644Z,1000.6
2022-11-28T02:16:37.927Z,1000.6
2022-11-28T02:17:54.240Z,1000.5
2022-11-28T02:19:10.524Z,1000.5
2022-11-28T02:20:26.829Z,1000.5
2022-11-28T02:21:43.125Z,1000.5
2022-11-28T02:22:59.419Z,1000.4
2022-11-28T02:24:14.725Z,1000.4
2022-11-28T02:25:31.027Z,1000.3
2022-11-28T02:26:47.316Z,1000.4
2022-11-28T02:28:03.605Z,1000.3
2022-11-28T02:29:19.906Z,1000.3
2022-11-28T02:30:36.194Z,1000.3
2022-11-28T02:31:52.496Z,1000.3
2022-11-28T02:33:08.782Z,1000.3
2022-11-28T02:34:25.088Z,1000.2
2022-11-28T02:35:41.385Z,1000.1
2022-11-28T02:36:57.682Z,1000.2
2022-11-28T02:38:13.961Z,1000.2
2022-11-28T02:39:30.250Z,1000.1
2022-11-28T02:40:45.562Z,1000.2
2022-11-28T02:42:01.856Z,1000.2
2022-11-28T02:43:18.153Z,1000.2
2022-11-28T02:44:34.462Z,1000.2
2022-11-28T02:45:50.759Z,1000.2
2022-11-28T02:47:07.047Z,1000.1
2022-11-28T02:48:23.346Z,1000.1
2022-11-28T02:49:39.626Z,1000.1
2022-11-28T02:50:55.936Z,1000.1
2022-11-28T02:52:12.233Z,1000
2022-11-28T02:53:28.523Z,1000
2022-11-28T02:54:44.819Z,1000
2022-11-28T02:56:01.107Z,1000
2022-11-28T02:57:16.416Z,1000
2022-11-28T02:58:32.725Z,1000
2022-11-28T02:59:49.017Z,1000
2022-11-28T03:01:05.298Z,999.9
2022-11-28T03:02:21.593Z,1000
2022-11-28T03:03:37.902Z,1000
2022-11-28T03:04:54.191Z,1000
2022-11-28T03:06:10.485Z,999.9
2022-11-28T03:07:26.775Z,999.9
2022-11-28T03:08:43.082Z,999.9
2022-11-28T03:09:59.366Z,999.9
2022-11-28T03:11:15.659Z,999.9
2022-11-28T03:12:31.960Z,999.9
2022-11-28T03:13:47.276Z,999.8
2022-11-28T03:15:03.573Z,999.8
2022-11-28T03:16:19.866Z,999.8
2022-11-28T03:17:36.158Z,999.8
2022-11-28T03:18:52.443Z,999.7
2022-11-28T03:20:08.738Z,999.7
2022-11-28T03:21:25.031Z,999.6
2022-11-28T03:22:40.363Z,999.7
2022-11-28T03:25:12.940Z,999.7
2022-11-28T03:26:29.236Z,999.6
2022-11-28T03:27:45.528Z,999.6
2022-11-28T03:29:01.836Z,999.6
2022-11-28T03:30:18.121Z,999.6
2022-11-28T03:31:34.411Z,999.5
2022-11-28T03:32:50.715Z,999.6
2022-11-28T03:34:07.007Z,999.5
2022-11-28T03:35:23.293Z,999.5
2022-11-28T03:36:39.592Z,999.6
2022-11-28T03:37:55.890Z,999.5
2022-11-28T03:39:11.198Z,999.5
2022-11-28T03:40:27.504Z,999.5
2022-11-28T03:41:43.791Z,999.4
2022-11-28T03:43:00.081Z,999.4
2022-11-28T03:44:16.390Z,999.4
2022-11-28T03:45:32.669Z,999.3
2022-11-28T03:46:48.974Z,999.3
2022-11-28T03:48:05.262Z,999.4
2022-11-28T03:49:21.571Z,999.4
2022-11-28T03:50:37.849Z,999.4
2022-11-28T03:51:54.155Z,999.3
2022-11-28T03:53:10.450Z,999.3
2022-11-28T03:54:26.732Z,999.3
2022-11-28T03:55:42.049Z,999.3
2022-11-28T03:56:58.350Z,999.3
2022-11-28T03:58:14.650Z,999.3
2022-11-28T03:59:30.936Z,999.3
2022-11-28T04:00:47.239Z,999.3
2022-11-28T04:03:19.815Z,999.3
2022-11-28T04:04:36.106Z,999.2
2022-11-28T04:05:52.414Z,999.3
2022-11-28T04:07:08.700Z,999.2
2022-11-28T04:09:41.293Z,999.3
2022-11-28T04:10:57.580Z,999.3
2022-11-28T04:12:12.909Z,999.3
2022-11-28T04:13:29.186Z,999.3
2022-11-28T04:14:45.491Z,999.3
2022-11-28T04:16:01.795Z,999.3
2022-11-28T04:17:18.084Z,999.3
2022-11-28T04:18:34.368Z,999.2
2022-11-28T04:21:06.954Z,999.3
2022-11-28T04:22:22.291Z,999.2
2022-11-28T04:23:37.592Z,999.2
2022-11-28T04:24:53.896Z,999.2
2022-11-28T04:26:10.180Z,999.1
2022-11-28T04:27:26.479Z,999.1
2022-11-28T04:28:42.761Z,999.1
2022-11-28T04:29:59.076Z,999
2022-11-28T04:31:15.367Z,999.1
2022-11-28T04:32:31.648Z,999
2022-11-28T04:33:47.958Z,999
2022-11-28T04:35:04.242Z,999
2022-11-28T04:36:19.553Z,998.9
2022-11-28T04:37:34.862Z,998.9
2022-11-28T04:38:51.172Z,998.9
2022-11-28T04:40:07.453Z,998.9
2022-11-28T04:41:23.767Z,998.8
2022-11-28T04:43:56.347Z,998.8
2022-11-28T04:45:12.650Z,998.9
2022-11-28T04:46:28.943Z,998.8
2022-11-28T04:47:45.237Z,998.8
2022-11-28T04:49:01.515Z,998.8
2022-11-28T04:50:17.810Z,998.8
2022-11-28T04:51:34.112Z,998.7
2022-11-28T04:52:50.401Z,998.7
2022-11-28T04:54:05.725Z,998.7
2022-11-28T04:55:22.022Z,998.7
2022-11-28T04:56:38.303Z,998.7
2022-11-28T04:57:54.610Z,998.7
2022-11-28T04:59:10.910Z,998.7
2022-11-28T05:00:27.188Z,998.7
2022-11-28T05:01:43.490Z,998.7
2022-11-28T05:04:16.085Z,998.7
2022-11-28T05:05:32.380Z,998.6
2022-11-28T05:06:48.672Z,998.7
2022-11-28T05:08:04.971Z,998.7
2022-11-28T05:09:21.249Z,998.7
2022-11-28T05:10:37.560Z,998.7
2022-11-28T05:11:52.870Z,998.7
2022-11-28T05:13:09.154Z,998.7
2022-11-28T05:14:25.462Z,998.8
2022-11-28T05:15:41.758Z,998.7
2022-11-28T05:16:58.049Z,998.8
2022-11-28T05:18:14.336Z,998.7
2022-11-28T05:19:30.640Z,998.7
2022-11-28T05:20:46.937Z,998.7
2022-11-28T05:22:03.231Z,998.6
2022-11-28T05:23:19.519Z,998.6
2022-11-28T05:24:35.821Z,998.6
2022-11-28T05:25:52.101Z,998.6
2022-11-28T05:27:08.412Z,998.6
2022-11-28T05:28:23.720Z,998.5
2022-11-28T05:29:40.007Z,998.5
2022-11-28T05:32:12.599Z,998.5
2022-11-28T05:34:45.196Z,998.4
2022-11-28T05:36:01.491Z,998.4
2022-11-28T05:37:17.780Z,998.4
2022-11-28T05:38:34.073Z,998.4
2022-11-28T05:39:50.367Z,998.3
2022-11-28T05:41:06.664Z,998.2
2022-11-28T05:42:22.966Z,998.3
2022-11-28T05:43:39.242Z,998.2
2022-11-28T05:44:54.564Z,998.2
2022-11-28T05:46:10.863Z,998.2
2022-11-28T05:47:27.155Z,998.1
2022-11-28T05:48:43.445Z,998.1
2022-11-28T05:49:59.737Z,998.1
2022-11-28T05:51:16.036Z,998
2022-11-28T05:52:32.333Z,998
2022-11-28T05:53:48.616Z,998
2022-11-28T05:55:04.917Z,998
2022-11-28T05:56:21.208Z,997.9
2022-11-28T05:57:37.501Z,998
2022-11-28T05:58:53.805Z,998.1
2022-11-28T06:00:10.109Z,998.1
2022-11-28T06:01:26.404Z,998
2022-11-28T06:02:41.703Z,998.1
2022-11-28T06:03:58.005Z,998.2
2022-11-28T06:05:14.287Z,998.2
2022-11-28T06:06:30.546Z,998.3
2022-11-28T06:07:46.841Z,998.4
2022-11-28T06:09:03.128Z,998.4
2022-11-28T06:10:19.425Z,998.5
2022-11-28T06:11:35.665Z,998.5
2022-11-28T06:12:51.906Z,998.5
2022-11-28T06:14:08.149Z,998.6
2022-11-28T06:15:24.456Z,998.7
2022-11-28T06:16:40.755Z,998.6
2022-11-28T06:17:57.004Z,998.6
2022-11-28T06:19:12.247Z,998.5
2022-11-28T06:20:28.487Z,998.6
2022-11-28T06:21:44.743Z,998.7
2022-11-28T06:23:00.984Z,998.7
2022-11-28T06:24:17.218Z,998.6
2022-11-28T06:25:33.462Z,998.6
2022-11-28T06:28:05.945Z,998.6
2022-11-28T06:29:22.189Z,998.7
2022-11-28T06:30:38.428Z,998.7
2022-11-28T06:31:54.672Z,998.7
2022-11-28T06:33:10.898Z,998.7
2022-11-28T06:35:43.386Z,998.5
2022-11-28T06:36:58.651Z,998.5
2022-11-28T06:38:14.873Z,998.5
2022-11-28T06:39:31.126Z,998.4
2022-11-28T06:40:47.357Z,998.4
2022-11-28T06:42:03.607Z,998.5
2022-11-28T06:43:19.844Z,998.5
2022-11-28T06:44:36.080Z,998.4
2022-11-28T06:45:52.319Z,998.3
2022-11-28T06:47:08.560Z,998.3
2022-11-28T06:48:24.808Z,998.3
2022-11-28T06:49:41.055Z,998.3
2022-11-28T06:50:57.298Z,998.3
2022-11-28T06:52:13.531Z,998.3
2022-11-28T06:53:28.797Z,998.2
2022-11-28T06:54:45.018Z,998.2
2022-11-28T06:56:01.272Z,998.2
2022-11-28T06:58:33.754Z,998.2
2022-11-28T06:59:49.994Z,998.2
2022-11-28T07:01:06.231Z,998.2
2022-11-28T07:02:22.466Z,998.3
2022-11-28T07:03:38.707Z,998.3
2022-11-28T07:04:54.952Z,998.4
2022-11-28T07:06:11.184Z,998.4
2022-11-28T07:07:27.443Z,998.4
2022-11-28T07:08:43.680Z,998.4
2022-11-28T07:09:58.942Z,998.5
2022-11-28T07:11:15.173Z,998.5
2022-11-28T07:12:31.409Z,998.5
2022-11-28T07:13:47.659Z,998.5
2022-11-28T07:15:03.887Z,998.5
2022-11-28T07:16:20.136Z,998.5
2022-11-28T07:17:36.387Z,998.5
2022-11-28T07:18:52.615Z,998.4
2022-11-28T07:21:25.103Z,998.3
2022-11-28T07:22:41.346Z,998.3
2022-11-28T07:23:57.577Z,998.4
2022-11-28T07:25:13.830Z,998.2
2022-11-28T07:26:29.072Z,998.2
2022-11-28T07:27:45.310Z,998.2
2022-11-28T07:29:01.565Z,998.2
2022-11-28T07:30:17.812Z,998.2
2022-11-28T07:31:34.047Z,998.1
2022-11-28T07:32:50.278Z,998.1
2022-11-28T07:34:06.523Z,998
2022-11-28T07:36:39.004Z,998
2022-11-28T07:37:54.275Z,998.1
2022-11-28T07:39:10.499Z,998.1
2022-11-28T07:40:26.751Z,998.2
2022-11-28T07:41:42.996Z,998.1
2022-11-28T07:42:59.229Z,998.1
2022-11-28T07:44:15.470Z,998.2
2022-11-28T07:45:31.707Z,998.2
2022-11-28T07:46:47.961Z,998.2
2022-11-28T07:48:04.198Z,998.2
2022-11-28T07:49:20.432Z,998.2
2022-11-28T07:50:36.686Z,998.2
2022-11-28T07:51:52.919Z,998.1
2022-11-28T07:53:09.159Z,998.2
2022-11-28T07:54:25.525Z,998.2
2022-11-28T07:55:41.751Z,998.2
2022-11-28T07:56:57.997Z,998.2
2022-11-28T07:58:14.241Z,998.2
2022-11-28T07:59:30.486Z,998.2
2022-11-28T08:00:46.733Z,998.2
2022-11-28T08:02:02.968Z,998.2
2022-11-28T08:03:19.204Z,998.2
2022-11-28T08:04:35.456Z,998.1
2022-11-28T08:05:51.690Z,998.2
2022-11-28T08:07:07.928Z,998.1
2022-11-28T08:08:24.170Z,998.1
2022-11-28T08:09:40.404Z,998
2022-11-28T08:10:55.673Z,998.1
2022-11-28T08:12:11.915Z,998.1
2022-11-28T08:13:28.154Z,998.1
2022-11-28T08:14:44.390Z,998.1
2022-11-28T08:16:00.635Z,998
2022-11-28T08:17:16.868Z,998
2022-11-28T08:18:33.106Z,997.9
2022-11-28T08:19:49.357Z,997.9
2022-11-28T08:21:05.594Z,997.9
2022-11-28T08:22:21.834Z,997.8
2022-11-28T08:23:38.065Z,997.8
2022-11-28T08:24:54.312Z,997.8
2022-11-28T08:26:10.559Z,997.8
2022-11-28T08:27:26.910Z,997.8
2022-11-28T08:29:59.402Z,997.8
2022-11-28T08:31:15.635Z,997.8
2022-11-28T08:32:31.883Z,997.8
2022-11-28T08:33:48.119Z,997.8
2022-11-28T08:35:04.365Z,997.8
2022-11-28T08:36:20.594Z,997.9
2022-11-28T08:37:36.842Z,997.8
2022-11-28T08:38:53.081Z,997.9
2022-11-28T08:40:09.331Z,997.9
2022-11-28T08:41:25.570Z,997.8
2022-11-28T08:42:41.812Z,997.9
2022-11-28T08:43:57.070Z,997.9
2022-11-28T08:45:13.300Z,997.9
2022-11-28T08:46:29.540Z,998
2022-11-28T08:47:45.791Z,998
2022-11-28T08:49:02.033Z,998
2022-11-28T08:50:18.269Z,998
2022-11-28T08:52:50.748Z,998
2022-11-28T08:54:06.986Z,998
2022-11-28T08:55:23.229Z,998
2022-11-28T08:56:39.463Z,998
2022-11-28T08:57:55.715Z,998
2022-11-28T08:59:11.959Z,998.1
2022-11-28T09:00:27.208Z,998
2022-11-28T09:01:43.451Z,998
2022-11-28T09:02:59.684Z,998
2022-11-28T09:04:15.933Z,998
2022-11-28T09:05:32.180Z,998.1
2022-11-28T09:06:48.406Z,998
2022-11-28T09:08:04.648Z,998.1
2022-11-28T09:09:20.902Z,998.1
2022-11-28T09:10:37.146Z,998.1
2022-11-28T09:11:53.379Z,998.1
2022-11-28T09:13:09.608Z,998.1
2022-11-28T09:14:25.858Z,998.1
2022-11-28T09:15:42.100Z,998.1
2022-11-28T09:16:57.348Z,998.1
2022-11-28T09:18:13.586Z,998.1
2022-11-28T09:19:29.826Z,998.1
2022-11-28T09:20:46.086Z,998.1
2022-11-28T09:22:02.328Z,998.1
2022-11-28T09:23:18.557Z,998.1
2022-11-28T09:24:34.800Z,998.1
2022-11-28T09:25:51.031Z,998.1
2022-11-28T09:28:23.513Z,998.1
2022-11-28T09:30:56.010Z,998.1
2022-11-28T09:32:12.236Z,998.1
2022-11-28T09:33:27.510Z,998.1
2022-11-28T09:34:43.747Z,998.1
2022-11-28T09:35:59.977Z,998.1
2022-11-28T09:38:32.469Z,998
2022-11-28T09:39:47.724Z,998
2022-11-28T09:41:02.985Z,998
2022-11-28T09:42:19.223Z,997.9
2022-11-28T09:43:35.463Z,998
2022-11-28T09:44:51.703Z,997.9
2022-11-28T09:46:07.937Z,998
2022-11-28T09:47:24.193Z,997.9
2022-11-28T09:48:40.423Z,997.9
2022-11-28T09:49:56.662Z,997.9
2022-11-28T09:51:12.908Z,997.9
2022-11-28T09:53:45.398Z,998
2022-11-28T09:55:01.641Z,997.9
2022-11-28T09:56:17.876Z,997.9
2022-11-28T09:57:33.127Z,997.9
2022-11-28T09:58:49.371Z,998
2022-11-28T10:00:05.601Z,997.9
2022-11-28T10:01:21.842Z,997.9
2022-11-28T10:02:38.095Z,997.9
2022-11-28T10:03:54.328Z,997.9
2022-11-28T10:05:10.566Z,997.9
2022-11-28T10:06:26.824Z,997.9
2022-11-28T10:07:42.083Z,997.9
2022-11-28T10:08:57.335Z,997.9
2022-11-28T10:10:13.580Z,997.9
2022-11-28T10:11:29.821Z,997.9
2022-11-28T10:12:46.046Z,997.9
2022-11-28T10:14:02.291Z,997.9
2022-11-28T10:15:18.525Z,997.9
2022-11-28T10:16:34.779Z,997.9
2022-11-28T10:17:51.025Z,997.9
2022-11-28T10:19:07.258Z,997.9
2022-11-28T10:20:23.495Z,997.9
2022-11-28T10:21:39.742Z,997.9
2022-11-28T10:22:55.979Z,998
2022-11-28T10:24:12.223Z,998
2022-11-28T10:25:27.469Z,998
2022-11-28T10:26:43.715Z,998.1
2022-11-28T10:27:59.963Z,998
2022-11-28T10:29:16.197Z,998
2022-11-28T10:31:48.677Z,998
2022-11-28T10:33:04.920Z,997.9
2022-11-28T10:34:21.166Z,997.9
2022-11-28T10:35:37.400Z,997.9
2022-11-28T10:36:53.639Z,997.9
2022-11-28T10:39:26.127Z,997.9
2022-11-28T10:40:42.366Z,997.9
2022-11-28T10:41:57.618Z,997.9
2022-11-28T10:43:13.868Z,997.9
2022-11-28T10:44:30.099Z,997.9
2022-11-28T10:45:46.337Z,997.9
2022-11-28T10:47:02.572Z,997.9
2022-11-28T10:48:18.826Z,998
2022-11-28T10:49:35.071Z,997.9
2022-11-28T10:50:51.305Z,997.9
2022-11-28T10:52:07.545Z,998
2022-11-28T10:54:40.023Z,997.9
2022-11-28T10:55:55.291Z,997.9
2022-11-28T10:57:10.549Z,997.9
2022-11-28T10:58:26.786Z,997.8
2022-11-28T10:59:43.025Z,997.8
2022-11-28T11:00:59.260Z,997.8
2022-11-28T11:02:15.510Z,997.8
2022-11-28T11:03:31.753Z,997.8
2022-11-28T11:04:47.987Z,997.8
2022-11-28T11:06:04.230Z,997.7
2022-11-28T11:07:20.460Z,997.6
2022-11-28T11:08:36.701Z,997.6
2022-11-28T11:09:51.979Z,997.6
2022-11-28T11:11:07.224Z,997.6
2022-11-28T11:12:23.467Z,997.6
2022-11-28T11:13:39.714Z,997.7
2022-11-28T11:14:55.941Z,997.6
2022-11-28T11:16:12.191Z,997.6
2022-11-28T11:17:28.420Z,997.6
2022-11-28T11:20:00.917Z,997.7
2022-11-28T11:21:17.162Z,997.7
2022-11-28T11:22:33.400Z,997.7
2022-11-28T11:25:05.865Z,997.6
2022-11-28T11:26:21.128Z,997.6
2022-11-28T11:27:36.383Z,997.6
2022-11-28T11:28:52.641Z,997.6
2022-11-28T11:30:08.869Z,997.6
2022-11-28T11:33:57.592Z,997.6
2022-11-28T11:35:13.832Z,997.7
2022-11-28T11:36:30.081Z,997.7
2022-11-28T11:37:46.318Z,997.7
2022-11-28T11:39:02.560Z,997.6
2022-11-28T11:40:18.798Z,997.7
2022-11-28T11:41:35.040Z,997.7
2022-11-28T11:42:50.296Z,997.7
2022-11-28T11:44:05.557Z,997.7
2022-11-28T11:45:21.797Z,997.7
2022-11-28T11:46:38.039Z,997.6
2022-11-28T11:47:54.271Z,997.6
2022-11-28T11:49:10.528Z,997.6
2022-11-28T11:50:26.757Z,997.6
2022-11-28T11:51:43.006Z,997.6
2022-11-28T11:52:58.272Z,997.6
2022-11-28T11:54:14.510Z,997.6
2022-11-28T11:55:30.736Z,997.6
2022-11-28T11:56:46.993Z,997.5
2022-11-28T11:58:02.248Z,997.5
2022-11-28T11:59:17.511Z,997.5
2022-11-28T12:00:33.739Z,997.5
2022-11-28T12:01:49.978Z,997.4
2022-11-28T12:03:06.232Z,997.4
2022-11-28T12:05:38.702Z,997.4
2022-11-28T12:06:54.950Z,997.3
2022-11-28T12:08:11.190Z,997.3
2022-11-28T12:09:27.436Z,997.4
2022-11-28T12:10:43.677Z,997.4
2022-11-28T12:11:59.900Z,997.4
2022-11-28T12:13:16.151Z,997.3
2022-11-28T12:14:32.382Z,997.4
2022-11-28T12:15:48.621Z,997.4
2022-11-28T12:17:03.887Z,997.4
2022-11-28T12:18:20.131Z,997.4
2022-11-28T12:19:36.362Z,997.3
2022-11-28T12:20:52.614Z,997.4
2022-11-28T12:22:08.847Z,997.4
2022-11-28T12:23:25.076Z,997.3
2022-11-28T12:25:57.552Z,997.3
2022-11-28T12:27:13.809Z,997.3
2022-11-28T12:28:30.044Z,997.3
2022-11-28T12:29:46.279Z,997.3
2022-11-28T12:31:02.000Z,997.3
2022-11-28T12:32:17.796Z,997.3
2022-11-28T12:33:33.053Z,997.2
2022-11-28T12:36:05.525Z,997.2
2022-11-28T12:37:21.771Z,997.3
2022-11-28T12:38:38.007Z,997.2
2022-11-28T12:42:26.730Z,997.2
2022-11-28T12:43:42.963Z,997.2
2022-11-28T12:44:59.210Z,997.2
2022-11-28T12:46:15.460Z,997.2
2022-11-28T12:47:31.698Z,997.3
2022-11-28T12:48:47.927Z,997.3
2022-11-28T12:50:03.197Z,997.3
2022-11-28T12:52:34.706Z,997.3
2022-11-28T12:57:39.661Z,997.3
2022-11-28T13:00:12.144Z,997.3
2022-11-28T13:01:28.374Z,997.3
2022-11-28T13:04:00.848Z,997.2
2022-11-28T13:05:17.107Z,997.2
2022-11-28T13:06:33.347Z,997.2
2022-11-28T13:07:48.602Z,997.2
2022-11-28T13:10:21.093Z,997.2
2022-11-28T13:12:53.564Z,997.1
2022-11-28T13:14:08.820Z,997.2
2022-11-28T13:15:24.084Z,997.2
2022-11-28T13:16:40.325Z,997.1
2022-11-28T13:17:56.559Z,997.1
2022-11-28T13:19:12.794Z,997.1
2022-11-28T13:20:29.041Z,997.2
2022-11-28T13:21:45.285Z,997.2
2022-11-28T13:23:01.525Z,997.2
2022-11-28T13:24:17.770Z,997.1
2022-11-28T13:26:50.253Z,997.2
2022-11-28T13:28:06.475Z,997.2
2022-11-28T13:29:22.726Z,997.2
2022-11-28T13:30:38.968Z,997.1
2022-11-28T13:31:54.211Z,997.1
2022-11-28T13:33:10.453Z,997.1
2022-11-28T13:34:26.693Z,997.1
2022-11-28T13:35:42.948Z,997.1
2022-11-28T13:36:59.183Z,997.1
2022-11-28T13:38:15.418Z,997.1
2022-11-28T13:39:31.666Z,997.1
2022-11-28T13:40:47.899Z,997.1
2022-11-28T13:42:03.167Z,997
2022-11-28T13:43:18.431Z,997
2022-11-28T13:44:34.667Z,997.1
2022-11-28T13:45:50.908Z,997.1
2022-11-28T13:47:07.145Z,997.1
2022-11-28T13:48:23.379Z,997.1
2022-11-28T13:49:39.631Z,997.1
2022-11-28T13:50:55.867Z,997.1
2022-11-28T13:52:12.113Z,997.1
2022-11-28T13:53:28.348Z,997.1
2022-11-28T13:54:44.599Z,997.1
2022-11-28T13:55:59.845Z,997.1
2022-11-28T13:57:15.097Z,997.1
2022-11-28T13:58:31.344Z,997.1
2022-11-28T13:59:47.589Z,997
2022-11-28T14:01:03.827Z,997.1
2022-11-28T14:02:20.076Z,997.1
2022-11-28T14:03:36.308Z,997.1
2022-11-28T14:04:52.552Z,997.1
2022-11-28T14:06:08.788Z,997.1
2022-11-28T14:07:25.032Z,997
2022-11-28T14:08:41.269Z,997.1
2022-11-28T14:09:57.508Z,997.1
2022-11-28T14:11:13.759Z,997.1
2022-11-28T14:12:30.001Z,997.1
2022-11-28T14:13:45.255Z,997
2022-11-28T14:15:01.499Z,997
2022-11-28T14:16:17.723Z,997
2022-11-28T14:17:33.967Z,997
2022-11-28T14:18:50.206Z,997.1
2022-11-28T14:20:06.449Z,997.1
2022-11-28T14:21:22.686Z,997.1
2022-11-28T14:22:38.930Z,997
2022-11-28T14:23:55.187Z,997.1
2022-11-28T14:25:11.427Z,997.1
2022-11-28T14:26:27.668Z,997.1
2022-11-28T14:27:43.901Z,997.1
2022-11-28T14:29:00.138Z,997.1
2022-11-28T14:30:15.388Z,997.1
2022-11-28T14:31:31.629Z,997.1
2022-11-28T14:32:47.878Z,997.1
2022-11-28T14:34:04.113Z,997.1
2022-11-28T14:35:20.363Z,997.1
2022-11-28T14:36:36.598Z,997.1
2022-11-28T14:37:52.845Z,997.2
2022-11-28T14:39:09.089Z,997.1
2022-11-28T14:40:25.314Z,997.1
2022-11-28T14:42:57.793Z,997.1
2022-11-28T14:44:14.033Z,997
2022-11-28T14:45:30.277Z,997.1
2022-11-28T14:46:45.546Z,997
2022-11-28T14:48:01.775Z,997
2022-11-28T14:49:18.014Z,997
2022-11-28T14:51:50.495Z,997.1
2022-11-28T14:53:06.746Z,997.1
2022-11-28T14:54:22.979Z,997.1
2022-11-28T14:55:39.228Z,997.1
2022-11-28T14:56:55.463Z,997.1
2022-11-28T14:58:11.697Z,997.1
2022-11-28T14:59:27.938Z,997.1
2022-11-28T15:00:44.193Z,997.2
2022-11-28T15:02:00.417Z,997.2
2022-11-28T15:03:15.682Z,997.1
2022-11-28T15:04:31.922Z,997.2
2022-11-28T15:05:48.174Z,997.2
2022-11-28T15:07:04.402Z,997.2
2022-11-28T15:08:20.656Z,997.1
2022-11-28T15:09:36.896Z,997.1
2022-11-28T15:10:53.118Z,997.1
2022-11-28T15:12:09.379Z,997.2
2022-11-28T15:13:25.608Z,997.2
2022-11-28T15:14:41.854Z,997.2
2022-11-28T15:15:58.094Z,997.2
2022-11-28T15:17:14.334Z,997.2
2022-11-28T15:18:30.569Z,997.2
2022-11-28T15:19:45.830Z,997.2
2022-11-28T15:21:02.067Z,997.2
2022-11-28T15:22:18.302Z,997.2
2022-11-28T15:23:34.557Z,997.2
2022-11-28T15:24:50.791Z,997.2
2022-11-28T15:26:07.027Z,997.2
2022-11-28T15:27:23.277Z,997.2
2022-11-28T15:28:39.508Z,997.2
2022-11-28T15:29:55.747Z,997.2
2022-11-28T15:31:11.992Z,997.2
2022-11-28T15:32:28.232Z,997.2
2022-11-28T15:33:44.469Z,997.2
2022-11-28T15:35:00.719Z,997.2
2022-11-28T15:36:15.977Z,997.3
2022-11-28T15:37:32.224Z,997.3
2022-11-28T15:38:48.508Z,997.3
2022-11-28T15:40:04.806Z,997.3
2022-11-28T15:41:21.095Z,997.3
2022-11-28T15:42:37.386Z,997.3
2022-11-28T15:43:53.677Z,997.3
2022-11-28T15:45:09.989Z,997.3
2022-11-28T15:46:26.275Z,997.3
2022-11-28T15:47:42.582Z,997.3
2022-11-28T15:48:58.869Z,997.3
2022-11-28T15:51:31.451Z,997.2
2022-11-28T15:54:03.051Z,997.2
2022-11-28T15:55:19.361Z,997.3
2022-11-28T15:56:35.641Z,997.3
2022-11-28T15:57:51.951Z,997.3
2022-11-28T15:59:08.231Z,997.3
2022-11-28T16:00:24.538Z,997.3
2022-11-28T16:01:40.822Z,997.3
2022-11-28T16:02:57.129Z,997.3
2022-11-28T16:04:13.422Z,997.3
2022-11-28T16:06:46.004Z,997.3
2022-11-28T16:08:01.337Z,997.2
2022-11-28T16:09:16.649Z,997.3
2022-11-28T16:10:32.933Z,997.2
2022-11-28T16:11:49.224Z,997.2
2022-11-28T16:13:05.517Z,997.3
2022-11-28T16:14:21.825Z,997.3
2022-11-28T16:15:38.122Z,997.3
2022-11-28T16:16:54.416Z,997.2
2022-11-28T16:18:10.708Z,997.3
2022-11-28T16:19:26.993Z,997.3
2022-11-28T16:20:43.301Z,997.2
2022-11-28T16:21:58.601Z,997.3
2022-11-28T16:23:13.919Z,997.3
2022-11-28T16:24:30.214Z,997.2
2022-11-28T16:25:46.514Z,997.2
2022-11-28T16:28:19.099Z,997.2
2022-11-28T16:29:35.402Z,997.3
2022-11-28T16:30:51.688Z,997.2
2022-11-28T16:32:07.984Z,997.2
2022-11-28T16:33:24.274Z,997.2
2022-11-28T16:34:40.562Z,997.2
2022-11-28T16:35:56.869Z,997.3
2022-11-28T16:37:13.159Z,997.3
2022-11-28T16:38:29.460Z,997.2
2022-11-28T16:39:44.761Z,997.2
2022-11-28T16:41:01.052Z,997.3
2022-11-28T16:42:17.348Z,997.2
2022-11-28T16:43:33.648Z,997.2
2022-11-28T16:44:49.941Z,997.2
2022-11-28T16:46:06.242Z,997.3
2022-11-28T16:47:22.523Z,997.3
2022-11-28T16:48:38.827Z,997.3
2022-11-28T16:49:55.112Z,997.3
2022-11-28T16:51:11.423Z,997.3
2022-11-28T16:52:27.705Z,997.3
2022-11-28T16:53:44.001Z,997.3
2022-11-28T16:55:00.306Z,997.3
2022-11-28T16:56:15.619Z,997.3
2022-11-28T16:57:31.898Z,997.3
2022-11-28T17:00:04.506Z,997.3
2022-11-28T17:02:37.076Z,997.3
2022-11-28T17:03:53.378Z,997.3
2022-11-28T17:05:09.671Z,997.3
2022-11-28T17:06:25.970Z,997.3
2022-11-28T17:07:42.270Z,997.3
2022-11-28T17:08:58.560Z,997.3
2022-11-28T17:10:14.852Z,997.3
2022-11-28T17:11:31.138Z,997.3
2022-11-28T17:12:46.455Z,997.3
2022-11-28T17:14:02.755Z,997.2
2022-11-28T17:15:19.043Z,997.2
2022-11-28T17:16:35.348Z,997.2
2022-11-28T17:17:51.645Z,997.3
2022-11-28T17:19:07.933Z,997.3
2022-11-28T17:20:24.230Z,997.3
2022-11-28T17:21:40.526Z,997.3
2022-11-28T17:22:56.823Z,997.3
2022-11-28T17:24:13.107Z,997.3
2022-11-28T17:25:29.403Z,997.3
2022-11-28T17:26:45.706Z,997.3
2022-11-28T17:28:01.997Z,997.3
2022-11-28T17:30:33.593Z,997.3